createdAt,value
2023-03-29T00:01:35.774Z,51.93
2023-03-29T00:04:39.042Z,52.49
2023-03-29T00:07:41.616Z,52.54
2023-03-29T00:10:44.161Z,52.70
2023-03-29T00:13:46.878Z,53.11
2023-03-29T00:16:49.496Z,52.15
2023-03-29T00:19:51.558Z,52.24
2023-03-29T00:22:54.008Z,53.66
2023-03-29T00:25:57.014Z,53.42
2023-03-29T00:28:59.477Z,52.65
2023-03-29T00:32:01.485Z,53.56
2023-03-29T00:35:06.149Z,53.60
2023-03-29T00:38:09.325Z,52.92
2023-03-29T00:41:14.039Z,53.17
2023-03-29T00:44:54.510Z,53.50
2023-03-29T00:48:03.117Z,53.78
2023-03-29T00:51:10.384Z,53.45
2023-03-29T00:54:19.374Z,52.70
2023-03-29T00:57:23.977Z,53.44
2023-03-29T01:00:35.137Z,53.20
2023-03-29T01:03:46.697Z,52.98
2023-03-29T01:07:18.230Z,53.31
2023-03-29T01:10:43.909Z,53.15
2023-03-29T01:13:54.625Z,53.21
2023-03-29T01:16:57.072Z,53.34
2023-03-29T01:20:10.939Z,53.37
2023-03-29T01:23:38.369Z,53.46
2023-03-29T01:27:00.204Z,52.92
2023-03-29T01:30:08.522Z,53.88
2023-03-29T01:33:14.292Z,53.50
2023-03-29T01:36:23.736Z,53.44
2023-03-29T01:39:28.392Z,53.55
2023-03-29T01:42:55.406Z,53.45
2023-03-29T01:46:01.581Z,53.51
2023-03-29T01:49:14.788Z,53.63
2023-03-29T01:52:24.951Z,53.50
2023-03-29T01:55:38.684Z,53.68
2023-03-29T01:58:48.156Z,53.61
2023-03-29T02:01:54.671Z,53.53
2023-03-29T02:04:59.582Z,53.57
2023-03-29T02:08:05.469Z,53.40
2023-03-29T02:11:09.060Z,53.85
2023-03-29T02:14:11.092Z,53.63
2023-03-29T02:17:20.178Z,53.75
2023-03-29T02:20:30.241Z,53.42
2023-03-29T02:23:47.257Z,53.92
2023-03-29T02:26:50.245Z,53.78
2023-03-29T02:29:53.439Z,53.71
2023-03-29T02:33:15.076Z,53.67
2023-03-29T02:36:24.195Z,53.39
2023-03-29T02:39:29.414Z,53.69
2023-03-29T02:42:35.265Z,53.75
2023-03-29T02:45:38.632Z,53.75
2023-03-29T02:48:42.052Z,53.63
2023-03-29T02:51:47.554Z,53.77
2023-03-29T02:54:55.021Z,53.74
2023-03-29T02:57:58.003Z,53.73
2023-03-29T03:01:02.589Z,53.66
2023-03-29T03:04:05.449Z,53.82
2023-03-29T03:07:08.132Z,53.76
2023-03-29T03:10:11.270Z,53.78
2023-03-29T03:13:14.219Z,53.78
2023-03-29T03:16:16.625Z,53.87
2023-03-29T03:19:19.992Z,53.83
2023-03-29T03:22:22.159Z,53.98
2023-03-29T03:25:24.752Z,54.09
2023-03-29T03:28:27.581Z,53.80
2023-03-29T03:31:31.613Z,54.15
2023-03-29T03:34:45.948Z,54.03
2023-03-29T03:37:48.918Z,54.22
2023-03-29T03:40:57.211Z,54.01
2023-03-29T03:44:01.019Z,54.36
2023-03-29T03:47:05.458Z,54.32
2023-03-29T03:50:09.990Z,54.38
2023-03-29T03:53:13.933Z,54.26
2023-03-29T03:56:46.094Z,54.24
2023-03-29T03:59:53.439Z,54.22
2023-03-29T04:03:02.897Z,54.15
2023-03-29T04:06:06.058Z,54.18
2023-03-29T04:09:33.494Z,54.25
2023-03-29T04:12:54.732Z,54.25
2023-03-29T04:16:00.100Z,54.30
2023-03-29T04:19:03.811Z,54.31
2023-03-29T04:22:06.702Z,54.25
2023-03-29T04:25:10.630Z,54.17
2023-03-29T04:28:39.326Z,54.20
2023-03-29T04:31:49.268Z,54.34
2023-03-29T04:35:12.019Z,54.24
2023-03-29T04:38:14.190Z,54.29
2023-03-29T04:41:19.168Z,54.43
2023-03-29T04:44:38.278Z,54.41
2023-03-29T04:47:45.837Z,54.29
2023-03-29T04:50:54.757Z,54.34
2023-03-29T04:53:58.123Z,54.38
2023-03-29T04:57:00.504Z,54.44
2023-03-29T05:00:29.007Z,54.42
2023-03-29T05:03:46.457Z,55.21
2023-03-29T05:06:58.716Z,54.87
2023-03-29T05:10:01.918Z,54.73
2023-03-29T05:13:04.917Z,54.72
2023-03-29T05:16:09.410Z,54.66
2023-03-29T05:19:13.328Z,54.78
2023-03-29T05:22:22.116Z,54.71
2023-03-29T05:25:25.973Z,54.68
2023-03-29T05:28:28.182Z,54.68
2023-03-29T05:31:30.750Z,54.59
2023-03-29T05:34:33.804Z,54.57
2023-03-29T05:37:39.379Z,54.50
2023-03-29T05:40:42.228Z,54.56
2023-03-29T05:44:12.202Z,54.52
2023-03-29T05:47:17.043Z,54.52
2023-03-29T05:50:20.932Z,54.62
2023-03-29T05:53:27.354Z,54.45
2023-03-29T05:56:29.799Z,54.44
2023-03-29T05:59:32.967Z,54.45
2023-03-29T06:02:36.990Z,54.44
2023-03-29T06:05:39.477Z,54.40
2023-03-29T06:08:42.971Z,54.28
2023-03-29T06:12:02.265Z,54.24
2023-03-29T06:15:26.572Z,54.17
2023-03-29T06:18:41.508Z,54.32
2023-03-29T06:21:44.383Z,54.28
2023-03-29T06:24:50.054Z,54.24
2023-03-29T06:27:59.413Z,54.20
2023-03-29T06:31:03.682Z,54.11
2023-03-29T06:34:13.999Z,54.15
2023-03-29T06:37:15.967Z,54.09
2023-03-29T06:40:23.357Z,54.03
2023-03-29T06:43:26.333Z,54.07
2023-03-29T06:46:31.250Z,54.11
2023-03-29T06:49:37.484Z,54.04
2023-03-29T06:52:49.307Z,54.14
2023-03-29T06:55:52.758Z,54.14
2023-03-29T06:59:16.533Z,54.02
2023-03-29T07:02:30.818Z,53.94
2023-03-29T07:05:42.599Z,53.99
2023-03-29T07:08:52.623Z,54.02
2023-03-29T07:12:27.236Z,54.06
2023-03-29T07:15:35.154Z,53.86
2023-03-29T07:18:46.521Z,53.88
2023-03-29T07:22:09.228Z,53.87
2023-03-29T07:25:23.867Z,53.81
2023-03-29T07:28:26.186Z,53.78
2023-03-29T07:31:35.317Z,53.69
2023-03-29T07:35:00.220Z,53.64
2023-03-29T07:38:11.595Z,53.67
2023-03-29T07:41:20.646Z,53.68
2023-03-29T07:44:27.545Z,53.76
2023-03-29T07:47:30.779Z,53.78
2023-03-29T07:50:35.220Z,53.80
2023-03-29T07:53:40.785Z,53.78
2023-03-29T07:56:58.047Z,53.80
2023-03-29T08:00:16.694Z,53.87
2023-03-29T08:03:29.827Z,53.73
2023-03-29T08:06:39.948Z,53.71
2023-03-29T08:09:43.527Z,53.55
2023-03-29T08:12:47.953Z,53.48
2023-03-29T08:15:52.623Z,53.49
2023-03-29T08:19:03.950Z,53.30
2023-03-29T08:22:23.799Z,53.19
2023-03-29T08:25:41.630Z,53.19
2023-03-29T08:28:46.767Z,53.31
2023-03-29T08:31:50.572Z,53.30
2023-03-29T08:34:53.267Z,52.99
2023-03-29T08:38:07.181Z,52.92
2023-03-29T08:41:19.119Z,52.91
2023-03-29T08:44:54.216Z,52.97
2023-03-29T08:48:11.302Z,53.01
2023-03-29T08:51:30.126Z,52.85
2023-03-29T08:54:42.799Z,52.84
2023-03-29T08:57:48.970Z,52.53
2023-03-29T09:01:06.121Z,52.59
2023-03-29T09:04:23.171Z,52.52
2023-03-29T09:07:36.579Z,52.56
2023-03-29T09:11:02.463Z,52.54
2023-03-29T09:14:49.266Z,52.47
2023-03-29T09:18:03.573Z,52.51
2023-03-29T09:21:16.566Z,52.63
2023-03-29T09:24:33.821Z,52.53
2023-03-29T09:28:13.000Z,52.57
2023-03-29T09:31:31.168Z,52.49
2023-03-29T09:34:47.114Z,52.68
2023-03-29T09:37:55.566Z,52.86
2023-03-29T09:41:14.085Z,52.74
2023-03-29T09:44:30.096Z,52.90
2023-03-29T09:47:53.960Z,52.91
2023-03-29T09:51:00.881Z,52.92
2023-03-29T09:54:03.975Z,52.71
2023-03-29T09:57:29.592Z,52.69
2023-03-29T10:00:32.526Z,52.69
2023-03-29T10:03:35.416Z,52.74
2023-03-29T10:07:00.063Z,52.65
2023-03-29T10:10:02.427Z,52.69
2023-03-29T10:13:22.267Z,54.22
2023-03-29T10:16:29.554Z,53.35
2023-03-29T10:19:36.418Z,53.62
2023-03-29T10:22:40.999Z,53.17
2023-03-29T10:25:44.627Z,53.70
2023-03-29T10:28:47.226Z,53.48
2023-03-29T10:31:50.663Z,53.07
2023-03-29T10:34:54.204Z,53.57
2023-03-29T10:37:59.759Z,53.85
2023-03-29T10:41:13.254Z,53.25
2023-03-29T10:44:33.085Z,54.11
2023-03-29T10:47:36.697Z,53.25
2023-03-29T10:50:39.480Z,53.55
2023-03-29T10:53:42.542Z,53.58
2023-03-29T10:56:57.907Z,53.70
2023-03-29T11:00:07.760Z,54.26
2023-03-29T11:03:27.365Z,53.33
2023-03-29T11:06:55.269Z,55.09
2023-03-29T11:10:04.208Z,54.05
2023-03-29T11:13:32.271Z,53.45
2023-03-29T11:17:07.825Z,52.95
2023-03-29T11:20:16.127Z,52.55
2023-03-29T11:23:44.984Z,52.38
2023-03-29T11:27:26.081Z,52.37
2023-03-29T11:30:48.384Z,52.73
2023-03-29T11:34:00.140Z,52.59
2023-03-29T11:37:23.137Z,53.23
2023-03-29T11:40:52.875Z,52.58
2023-03-29T11:44:06.853Z,52.59
2023-03-29T11:47:37.674Z,52.37
2023-03-29T11:51:01.240Z,52.47
2023-03-29T11:54:13.838Z,52.31
2023-03-29T11:57:26.338Z,52.34
2023-03-29T12:00:40.758Z,52.94
2023-03-29T12:04:12.374Z,52.80
2023-03-29T12:07:29.765Z,53.14
2023-03-29T12:10:40.895Z,53.32
2023-03-29T12:13:52.797Z,53.38
2023-03-29T12:17:04.635Z,52.82
2023-03-29T12:20:08.291Z,52.65
2023-03-29T12:23:17.199Z,52.40
2023-03-29T12:26:38.226Z,52.40
2023-03-29T12:30:18.201Z,52.24
2023-03-29T12:33:29.387Z,52.43
2023-03-29T12:37:19.581Z,52.42
2023-03-29T12:40:25.263Z,54.17
2023-03-29T12:43:48.900Z,53.06
2023-03-29T12:47:20.751Z,52.62
2023-03-29T12:50:28.810Z,52.27
2023-03-29T12:53:33.559Z,52.20
2023-03-29T12:56:55.418Z,52.11
2023-03-29T13:00:19.213Z,52.33
2023-03-29T13:03:30.202Z,52.24
2023-03-29T13:06:35.410Z,52.22
2023-03-29T13:09:54.476Z,53.25
2023-03-29T13:12:57.896Z,53.04
2023-03-29T13:16:13.818Z,52.45
2023-03-29T13:19:24.369Z,53.06
2023-03-29T13:22:53.534Z,52.93
2023-03-29T13:26:24.162Z,52.56
2023-03-29T13:29:55.078Z,52.89
2023-03-29T13:33:05.981Z,52.98
2023-03-29T13:36:14.667Z,53.80
2023-03-29T13:39:24.352Z,53.72
2023-03-29T13:42:56.428Z,54.00
2023-03-29T13:45:58.927Z,53.88
2023-03-29T13:49:11.941Z,53.89
2023-03-29T13:52:21.576Z,53.88
2023-03-29T13:55:34.889Z,53.77
2023-03-29T13:58:56.127Z,53.49
2023-03-29T14:02:03.084Z,53.96
2023-03-29T14:05:09.786Z,53.45
2023-03-29T14:08:16.211Z,53.64
2023-03-29T14:11:23.289Z,53.14
2023-03-29T14:14:28.760Z,53.25
2023-03-29T14:17:31.836Z,53.76
2023-03-29T14:20:34.966Z,54.63
2023-03-29T14:23:37.988Z,54.82
2023-03-29T14:26:46.436Z,55.19
2023-03-29T14:29:51.322Z,54.90
2023-03-29T14:32:54.847Z,54.93
2023-03-29T14:36:02.601Z,54.96
2023-03-29T14:39:12.646Z,54.41
2023-03-29T14:42:21.472Z,54.19
2023-03-29T14:45:24.652Z,54.01
2023-03-29T14:48:27.252Z,54.19
2023-03-29T14:51:31.412Z,54.10
2023-03-29T14:54:34.475Z,53.88
2023-03-29T14:57:38.327Z,53.83
2023-03-29T15:00:44.749Z,53.73
2023-03-29T15:03:55.081Z,53.55
2023-03-29T15:06:58.842Z,53.89
2023-03-29T15:10:05.377Z,53.79
2023-03-29T15:13:08.860Z,53.78
2023-03-29T15:16:15.257Z,53.63
2023-03-29T15:19:21.619Z,53.31
2023-03-29T15:22:24.046Z,53.17
2023-03-29T15:25:37.759Z,52.96
2023-03-29T15:28:55.893Z,52.79
2023-03-29T15:31:59.624Z,52.70
2023-03-29T15:35:08.016Z,52.64
2023-03-29T15:38:13.604Z,52.72
2023-03-29T15:41:16.238Z,52.65
2023-03-29T15:44:26.665Z,52.73
2023-03-29T15:47:29.143Z,53.27
2023-03-29T15:50:33.014Z,53.58
2023-03-29T15:53:35.807Z,53.34
2023-03-29T15:56:44.293Z,53.62
2023-03-29T15:59:46.943Z,53.35
2023-03-29T16:02:49.647Z,53.06
2023-03-29T16:05:55.195Z,52.86
2023-03-29T16:08:57.512Z,52.82
2023-03-29T16:12:01.489Z,52.76
2023-03-29T16:15:12.636Z,52.76
2023-03-29T16:18:15.346Z,52.74
2023-03-29T16:21:19.642Z,52.76
2023-03-29T16:24:24.682Z,52.78
2023-03-29T16:27:26.794Z,52.82
2023-03-29T16:30:31.146Z,52.88
2023-03-29T16:33:34.052Z,52.91
2023-03-29T16:36:37.117Z,52.96
2023-03-29T16:39:39.998Z,52.98
2023-03-29T16:42:43.410Z,52.98
2023-03-29T16:45:45.579Z,53.02
2023-03-29T16:48:49.183Z,53.04
2023-03-29T16:51:51.542Z,53.09
2023-03-29T16:54:53.918Z,53.05
2023-03-29T16:57:56.590Z,53.13
2023-03-29T17:01:07.868Z,53.10
2023-03-29T17:04:10.066Z,53.11
2023-03-29T17:07:12.715Z,53.16
2023-03-29T17:10:14.902Z,53.18
2023-03-29T17:13:17.912Z,53.18
2023-03-29T17:16:20.552Z,53.22
2023-03-29T17:19:23.020Z,53.24
2023-03-29T17:22:25.512Z,53.33
2023-03-29T17:25:30.526Z,53.36
2023-03-29T17:28:33.042Z,53.36
2023-03-29T17:31:36.868Z,53.39
2023-03-29T17:34:39.940Z,53.38
2023-03-29T17:37:43.083Z,53.43
2023-03-29T17:40:52.206Z,53.38
2023-03-29T17:43:54.715Z,53.40
2023-03-29T17:46:57.218Z,53.41
2023-03-29T17:50:00.198Z,53.43
2023-03-29T17:53:02.321Z,53.39
2023-03-29T17:56:07.414Z,53.39
2023-03-29T17:59:09.934Z,53.42
2023-03-29T18:02:21.678Z,53.39
2023-03-29T18:05:23.744Z,53.32
2023-03-29T18:08:26.679Z,53.38
2023-03-29T18:11:29.089Z,53.42
2023-03-29T18:14:32.348Z,53.44
2023-03-29T18:17:35.912Z,53.47
2023-03-29T18:20:38.470Z,53.56
2023-03-29T18:23:44.085Z,53.59
2023-03-29T18:26:46.636Z,53.59
2023-03-29T18:29:49.552Z,53.58
2023-03-29T18:32:52.500Z,53.69
2023-03-29T18:35:54.674Z,53.71
2023-03-29T18:39:04.662Z,53.72
2023-03-29T18:42:06.878Z,53.73
2023-03-29T18:45:10.146Z,53.78
2023-03-29T18:48:12.631Z,53.89
2023-03-29T18:51:15.452Z,53.87
2023-03-29T18:54:18.134Z,53.92
2023-03-29T18:57:20.708Z,53.95
2023-03-29T19:00:22.888Z,53.99
2023-03-29T19:03:26.120Z,54.07
2023-03-29T19:06:28.952Z,54.02
2023-03-29T19:09:32.595Z,54.01
2023-03-29T19:12:35.807Z,54.12
2023-03-29T19:15:40.603Z,54.12
2023-03-29T19:18:43.387Z,54.10
2023-03-29T19:21:48.149Z,54.28
2023-03-29T19:24:50.003Z,54.24
2023-03-29T19:27:52.763Z,54.35
2023-03-29T19:30:56.961Z,54.65
2023-03-29T19:33:59.834Z,54.71
2023-03-29T19:37:02.309Z,54.84
2023-03-29T19:40:06.851Z,54.97
2023-03-29T19:43:09.230Z,55.06
2023-03-29T19:46:12.991Z,55.00
2023-03-29T19:49:15.756Z,55.02
2023-03-29T19:52:18.482Z,55.27
2023-03-29T19:55:21.854Z,55.37
2023-03-29T19:58:24.971Z,55.28
2023-03-29T20:01:28.492Z,55.23
2023-03-29T20:04:33.396Z,55.34
2023-03-29T20:07:36.691Z,55.26
2023-03-29T20:10:39.737Z,55.27
2023-03-29T20:13:43.814Z,55.33
2023-03-29T20:16:46.629Z,55.31
2023-03-29T20:19:48.929Z,55.34
2023-03-29T20:23:05.236Z,55.34
2023-03-29T20:26:08.584Z,55.29
2023-03-29T20:29:11.816Z,55.26
2023-03-29T20:32:14.033Z,55.30
2023-03-29T20:35:16.692Z,55.38
2023-03-29T20:38:18.865Z,55.49
2023-03-29T20:41:21.474Z,55.34
2023-03-29T20:44:26.522Z,55.48
2023-03-29T20:47:29.760Z,55.64
2023-03-29T20:50:31.991Z,55.58
2023-03-29T20:53:36.547Z,55.56
2023-03-29T20:56:39.974Z,55.60
2023-03-29T20:59:43.818Z,55.54
2023-03-29T21:02:47.442Z,55.67
2023-03-29T21:05:54.856Z,55.71
2023-03-29T21:08:58.007Z,55.78
2023-03-29T21:12:00.747Z,55.86
2023-03-29T21:15:03.967Z,55.85
2023-03-29T21:18:07.309Z,55.94
2023-03-29T21:21:11.118Z,55.95
2023-03-29T21:24:14.819Z,55.95
2023-03-29T21:27:18.177Z,56.09
2023-03-29T21:30:20.885Z,56.08
2023-03-29T21:33:23.046Z,56.18
2023-03-29T21:36:27.616Z,56.30
2023-03-29T21:39:30.626Z,56.30
2023-03-29T21:42:34.256Z,56.22
2023-03-29T21:45:36.279Z,56.30
2023-03-29T21:48:39.127Z,56.25
2023-03-29T21:51:41.911Z,56.30
2023-03-29T21:54:44.344Z,56.33
2023-03-29T21:57:46.533Z,56.40
2023-03-29T22:00:49.054Z,56.92
2023-03-29T22:03:51.135Z,59.05
2023-03-29T22:06:54.027Z,59.03
2023-03-29T22:09:58.974Z,60.61
2023-03-29T22:13:01.945Z,61.19
2023-03-29T22:16:04.758Z,61.66
2023-03-29T22:19:08.915Z,60.98
2023-03-29T22:22:14.467Z,60.86
2023-03-29T22:25:18.840Z,62.11
2023-03-29T22:28:21.010Z,61.56
2023-03-29T22:31:26.726Z,61.30
2023-03-29T22:34:30.375Z,62.43
2023-03-29T22:37:33.236Z,60.51
2023-03-29T22:40:35.925Z,60.73
2023-03-29T22:43:38.872Z,60.59
2023-03-29T22:46:41.362Z,61.59
2023-03-29T22:49:44.243Z,61.77
2023-03-29T22:52:46.263Z,62.15
2023-03-29T22:55:48.605Z,61.50
2023-03-29T22:58:51.544Z,61.20
2023-03-29T23:01:54.553Z,60.76
2023-03-29T23:04:56.933Z,61.25
2023-03-29T23:07:59.798Z,61.56
2023-03-29T23:11:02.624Z,61.45
2023-03-29T23:14:05.621Z,61.87
2023-03-29T23:17:09.229Z,62.69
2023-03-29T23:20:11.921Z,61.97
2023-03-29T23:23:16.047Z,62.39
2023-03-29T23:26:18.582Z,62.79
2023-03-29T23:29:20.584Z,62.09
2023-03-29T23:32:23.343Z,62.71
2023-03-29T23:35:25.620Z,61.81
2023-03-29T23:38:28.490Z,61.65
2023-03-29T23:41:30.783Z,62.27
2023-03-29T23:44:33.570Z,61.69
2023-03-29T23:47:37.878Z,61.01
2023-03-29T23:50:40.676Z,60.25
2023-03-29T23:53:43.031Z,59.79
2023-03-29T23:56:46.739Z,59.10
2023-03-29T23:59:52.838Z,58.23
